Time;durP1;ratioP1;P1;durP2;ratioP2;P2;SDS_P1;SDS_P2;PMS_P1;PMS_P2;Temp;Humidity;BMP_temperature;BMP_pressure;BME280_temperature;BME280_humidity;BME280_pressure;Samples;Min_cycle;Max_cycle;Signal;HPM_P1;HPM_P2
2024/01/14 00:00:00;;;;;;;0.20;0.10;;;;;;;;;;4958585;28;20056;-86
2024/01/14 00:02:26;;;;;;;0.20;0.10;;;;;;;;;;4945068;28;20288;-85
2024/01/14 00:04:52;;;;;;;0.20;0.10;;;;;;;;;;4960477;28;20042;-86
2024/01/14 00:07:18;;;;;;;0.20;0.10;;;;;;;;;;4960217;28;20043;-87
2024/01/14 00:09:46;;;;;;;0.20;0.10;;;;;;;;;;4958979;28;20050;-86
2024/01/14 00:12:12;;;;;;;0.20;0.10;;;;;;;;;;4946307;28;20054;-85
2024/01/14 00:14:38;;;;;;;0.20;0.10;;;;;;;;;;4960528;28;20316;-86
2024/01/14 00:17:04;;;;;;;0.20;0.10;;;;;;;;;;4947435;28;20047;-87
2024/01/14 00:19:31;;;;;;;0.20;0.10;;;;;;;;;;4945397;28;20133;-88
2024/01/14 00:21:59;;;;;;;0.20;0.10;;;;;;;;;;4951820;28;20050;-84
2024/01/14 00:24:25;;;;;;;0.20;0.10;;;;;;;;;;4946246;28;20102;-85
2024/01/14 00:26:51;;;;;;;0.20;0.10;;;;;;;;;;4965907;28;20110;-84
2024/01/14 00:29:17;;;;;;;0.20;0.10;;;;;;;;;;4946423;28;20499;-84
2024/01/14 00:31:43;;;;;;;0.20;0.10;;;;;;;;;;4948022;28;20039;-85
2024/01/14 00:34:09;;;;;;;0.20;0.10;;;;;;;;;;4948796;28;20042;-84
2024/01/14 00:36:39;;;;;;;0.20;0.10;;;;;;;;;;4944950;28;20050;-86
2024/01/14 00:39:06;;;;;;;0.20;0.05;;;;;;;;;;4956189;28;20052;-84
2024/01/14 00:41:34;;;;;;;0.20;0.10;;;;;;;;;;4944879;28;20129;-85
2024/01/14 00:44:00;;;;;;;0.20;0.10;;;;;;;;;;4960592;28;20133;-83
2024/01/14 00:46:27;;;;;;;0.20;0.10;;;;;;;;;;4962645;28;20039;-84
2024/01/14 00:48:53;;;;;;;0.20;0.10;;;;;;;;;;4944194;28;20047;-84
2024/01/14 00:51:19;;;;;;;0.20;0.10;;;;;;;;;;4960911;28;20780;-86
2024/01/14 00:53:45;;;;;;;0.20;0.10;;;;;;;;;;4945583;28;20057;-84
2024/01/14 00:56:12;;;;;;;0.20;0.10;;;;;;;;;;4958023;28;20424;-85
2024/01/14 00:58:38;;;;;;;0.20;0.10;;;;;;;;;;4944071;28;20043;-84
2024/01/14 01:01:07;;;;;;;0.20;0.10;;;;;;;;;;4947143;28;20046;-84
2024/01/14 01:03:33;;;;;;;0.20;0.03;;;;;;;;;;4949538;28;20039;-84
2024/01/14 01:05:59;;;;;;;0.20;0.10;;;;;;;;;;4962801;28;20046;-89
2024/01/14 01:08:25;;;;;;;0.20;0.03;;;;;;;;;;4946137;28;20118;-82
2024/01/14 01:10:51;;;;;;;0.20;0.10;;;;;;;;;;4949012;28;20039;-82
2024/01/14 01:13:17;;;;;;;0.20;0.10;;;;;;;;;;4945497;28;20516;-86
2024/01/14 01:15:43;;;;;;;0.20;0.10;;;;;;;;;;4958050;28;20035;-85
2024/01/14 01:18:09;;;;;;;0.20;0.10;;;;;;;;;;4936401;28;20039;-85
2024/01/14 01:20:38;;;;;;;0.20;0.10;;;;;;;;;;4945095;28;21714;-84
2024/01/14 01:23:04;;;;;;;0.20;0.10;;;;;;;;;;4964898;28;20129;-89
2024/01/14 01:25:30;;;;;;;0.20;0.10;;;;;;;;;;4946013;28;20519;-85
2024/01/14 01:27:56;;;;;;;0.20;0.10;;;;;;;;;;4945956;28;20537;-82
2024/01/14 01:30:22;;;;;;;0.20;0.10;;;;;;;;;;4942451;28;20108;-87
2024/01/14 01:32:51;;;;;;;0.20;0.10;;;;;;;;;;4944239;28;20031;-84
2024/01/14 01:35:20;;;;;;;0.20;0.10;;;;;;;;;;4945905;28;20051;-84
2024/01/14 01:37:49;;;;;;;0.20;0.03;;;;;;;;;;4956603;28;20129;-86
2024/01/14 01:40:15;;;;;;;0.20;0.00;;;;;;;;;;4943020;28;20059;-86
2024/01/14 01:42:46;;;;;;;0.20;0.10;;;;;;;;;;4939192;28;20032;-88
2024/01/14 01:45:12;;;;;;;0.20;0.10;;;;;;;;;;4946473;28;20047;-84
2024/01/14 01:47:42;;;;;;;0.20;0.10;;;;;;;;;;4961651;28;20047;-85
2024/01/14 01:50:09;;;;;;;0.20;0.08;;;;;;;;;;4945067;28;20045;-83
2024/01/14 01:52:35;;;;;;;0.20;0.10;;;;;;;;;;4956065;28;20048;-87
2024/01/14 01:55:02;;;;;;;0.20;0.03;;;;;;;;;;4944104;28;20570;-86
2024/01/14 01:57:28;;;;;;;0.20;0.10;;;;;;;;;;4963060;28;20043;-84
2024/01/14 01:59:54;;;;;;;0.20;0.00;;;;;;;;;;4947257;28;20126;-84
2024/01/14 02:02:22;;;;;;;0.20;0.10;;;;;;;;;;4944971;28;20696;-87
2024/01/14 02:04:48;;;;;;;0.20;0.10;;;;;;;;;;4962109;28;20042;-86
2024/01/14 02:07:17;;;;;;;0.20;0.10;;;;;;;;;;4944297;28;20054;-86
2024/01/14 02:09:47;;;;;;;0.20;0.10;;;;;;;;;;4960192;28;20647;-87
2024/01/14 02:12:13;;;;;;;0.20;0.00;;;;;;;;;;4955265;28;20047;-86
2024/01/14 02:15:09;;;;;;;0.20;0.10;;;;;;;;;;4946976;28;20047;-88
2024/01/14 02:17:57;;;;;;;0.20;0.08;;;;;;;;;;4956848;28;20149;-86
2024/01/14 02:20:23;;;;;;;0.20;0.10;;;;;;;;;;4942962;28;20039;-87
2024/01/14 02:22:52;;;;;;;0.20;0.10;;;;;;;;;;4945166;28;20113;-84
2024/01/14 02:25:21;;;;;;;0.20;0.10;;;;;;;;;;4957939;28;20531;-85
2024/01/14 02:27:47;;;;;;;0.20;0.10;;;;;;;;;;4963080;28;21249;-89
2024/01/14 02:30:35;;;;;;;0.20;0.00;;;;;;;;;;4950701;28;20284;-86
2024/01/14 02:33:09;;;;;;;0.20;0.00;;;;;;;;;;4959386;28;20065;-88
2024/01/14 02:35:36;;;;;;;0.20;0.00;;;;;;;;;;4962115;28;20039;-88
2024/01/14 02:38:02;;;;;;;0.20;0.10;;;;;;;;;;4967083;28;20045;-88
2024/01/14 02:40:28;;;;;;;0.20;0.00;;;;;;;;;;4949939;28;20114;-88
2024/01/14 02:42:55;;;;;;;0.20;0.10;;;;;;;;;;4958151;28;20050;-88
2024/01/14 02:45:21;;;;;;;0.20;0.10;;;;;;;;;;4944161;28;20554;-87
2024/01/14 02:47:58;;;;;;;0.20;0.10;;;;;;;;;;4966401;28;20053;-87
2024/01/14 02:50:29;;;;;;;0.20;0.10;;;;;;;;;;4943331;28;20105;-87
2024/01/14 02:52:56;;;;;;;0.20;0.10;;;;;;;;;;4955334;28;20035;-86
2024/01/14 02:55:22;;;;;;;0.20;0.05;;;;;;;;;;4964228;28;20050;-88
2024/01/14 02:57:49;;;;;;;0.20;0.05;;;;;;;;;;4963968;28;20420;-87
2024/01/14 03:00:20;;;;;;;0.20;0.10;;;;;;;;;;4947705;28;20047;-86
2024/01/14 03:02:46;;;;;;;0.20;0.10;;;;;;;;;;4948787;28;20047;-87
2024/01/14 03:05:20;;;;;;;0.20;0.03;;;;;;;;;;4962259;28;20051;-85
2024/01/14 03:07:52;;;;;;;0.20;0.10;;;;;;;;;;4958151;28;20031;-87
2024/01/14 03:10:24;;;;;;;0.20;0.10;;;;;;;;;;4950999;28;20049;-86
2024/01/14 03:12:50;;;;;;;0.20;0.00;;;;;;;;;;4949018;28;20508;-89
2024/01/14 03:15:22;;;;;;;0.20;0.00;;;;;;;;;;4946007;28;20463;-86
2024/01/14 03:17:48;;;;;;;0.20;0.10;;;;;;;;;;4959188;28;20042;-87
2024/01/14 03:20:24;;;;;;;;;;;;;;;;;;;;;
2024/01/14 03:22:50;;;;;;;0.20;0.10;;;;;;;;;;4968354;28;20073;-85
2024/01/14 03:25:21;;;;;;;0.20;0.10;;;;;;;;;;4967519;28;20070;-86
2024/01/14 03:27:47;;;;;;;0.20;0.00;;;;;;;;;;4954732;28;20054;-85
2024/01/14 03:30:13;;;;;;;0.20;0.00;;;;;;;;;;4981796;28;20059;-87
2024/01/14 03:32:40;;;;;;;0.20;0.10;;;;;;;;;;4943502;28;20098;-86
2024/01/14 03:35:08;;;;;;;0.20;0.10;;;;;;;;;;4961599;28;20054;-88
2024/01/14 03:37:37;;;;;;;0.20;0.00;;;;;;;;;;4950783;28;20047;-86
2024/01/14 03:40:20;;;;;;;0.20;0.10;;;;;;;;;;4950894;28;20094;-86
2024/01/14 03:42:49;;;;;;;0.20;0.10;;;;;;;;;;4949549;28;20035;-86
2024/01/14 03:45:15;;;;;;;0.20;0.10;;;;;;;;;;4945390;28;21725;-85
2024/01/14 03:47:41;;;;;;;0.20;0.10;;;;;;;;;;4961955;28;20491;-85
2024/01/14 03:50:28;;;;;;;0.20;0.10;;;;;;;;;;4950210;28;20030;-85
2024/01/14 03:52:57;;;;;;;0.20;0.10;;;;;;;;;;4966440;28;20093;-85
2024/01/14 03:55:23;;;;;;;0.20;0.00;;;;;;;;;;4955399;28;20074;-86
2024/01/14 03:57:50;;;;;;;0.20;0.10;;;;;;;;;;4945634;28;20035;-86
2024/01/14 04:00:19;;;;;;;0.20;0.10;;;;;;;;;;4952823;28;20051;-86
2024/01/14 04:02:59;;;;;;;;;;;;;;;;;;;;;
2024/01/14 04:08:17;;;;;;;0.20;0.10;;;;;;;;;;4955486;28;20139;-89
2024/01/14 04:10:48;;;;;;;0.20;0.10;;;;;;;;;;4952207;28;20135;-86
2024/01/14 04:13:20;;;;;;;0.20;0.10;;;;;;;;;;4951191;28;20054;-85
2024/01/14 04:15:52;;;;;;;0.20;0.10;;;;;;;;;;4970298;28;20050;-84
2024/01/14 04:18:25;;;;;;;0.20;0.10;;;;;;;;;;4952011;28;20126;-85
2024/01/14 04:21:09;;;;;;;0.20;0.10;;;;;;;;;;4966411;28;20073;-84
2024/01/14 04:23:43;;;;;;;0.20;0.10;;;;;;;;;;4966796;28;20062;-85
2024/01/14 04:26:30;;;;;;;0.20;0.10;;;;;;;;;;4966797;28;20146;-84
2024/01/14 04:29:23;;;;;;;0.20;0.10;;;;;;;;;;4975166;28;20042;-85
2024/01/14 04:32:00;;;;;;;0.20;0.10;;;;;;;;;;4957564;28;20337;-84
2024/01/14 04:34:52;;;;;;;0.20;0.10;;;;;;;;;;4971626;28;20023;-84
2024/01/14 04:37:27;;;;;;;0.20;0.10;;;;;;;;;;4961441;28;20047;-86
2024/01/14 04:40:13;;;;;;;0.20;0.00;;;;;;;;;;4966868;28;20051;-85
2024/01/14 04:42:39;;;;;;;0.20;0.10;;;;;;;;;;4980104;28;20074;-84
2024/01/14 04:45:05;;;;;;;0.20;0.10;;;;;;;;;;4968988;28;20023;-84
2024/01/14 04:47:43;;;;;;;0.20;0.10;;;;;;;;;;4960175;28;20085;-85
2024/01/14 04:50:10;;;;;;;0.20;0.10;;;;;;;;;;4970284;28;20130;-86
2024/01/14 04:52:38;;;;;;;0.20;0.00;;;;;;;;;;4973879;28;20049;-84
2024/01/14 04:55:21;;;;;;;0.20;0.10;;;;;;;;;;4982853;28;20074;-86
2024/01/14 04:57:47;;;;;;;0.20;0.00;;;;;;;;;;4981016;28;20043;-85
2024/01/14 05:00:14;;;;;;;0.20;0.10;;;;;;;;;;4963033;28;20047;-84
2024/01/14 05:02:52;;;;;;;0.20;0.10;;;;;;;;;;4975084;28;20133;-86
2024/01/14 05:05:18;;;;;;;0.20;0.10;;;;;;;;;;4967260;28;20047;-84
2024/01/14 05:08:06;;;;;;;0.20;0.10;;;;;;;;;;4968638;28;20070;-85
2024/01/14 05:10:38;;;;;;;0.20;0.10;;;;;;;;;;4958917;28;20093;-86
2024/01/14 05:13:04;;;;;;;0.20;0.10;;;;;;;;;;4975916;28;20035;-84
2024/01/14 05:15:30;;;;;;;0.20;0.10;;;;;;;;;;4970641;28;20042;-86
2024/01/14 05:18:03;;;;;;;0.20;0.00;;;;;;;;;;4956832;28;20039;-84
2024/01/14 05:20:35;;;;;;;0.20;0.10;;;;;;;;;;4979065;28;20589;-85
2024/01/14 05:23:03;;;;;;;0.20;0.00;;;;;;;;;;4960740;28;20042;-85
2024/01/14 05:25:32;;;;;;;0.20;0.10;;;;;;;;;;4979191;28;20031;-86
2024/01/14 05:28:09;;;;;;;0.20;0.00;;;;;;;;;;4966282;28;20035;-86
2024/01/14 05:30:35;;;;;;;0.20;0.00;;;;;;;;;;4966357;28;20043;-85
2024/01/14 05:33:10;;;;;;;0.20;0.10;;;;;;;;;;4961003;28;20023;-88
2024/01/14 05:35:40;;;;;;;0.20;0.10;;;;;;;;;;4961829;28;20043;-85
2024/01/14 05:38:26;;;;;;;0.20;0.10;;;;;;;;;;4957873;28;20611;-85
2024/01/14 05:40:55;;;;;;;0.20;0.10;;;;;;;;;;4974120;28;20045;-86
2024/01/14 05:43:23;;;;;;;0.20;0.10;;;;;;;;;;4958109;28;20050;-85
2024/01/14 05:46:02;;;;;;;0.20;0.10;;;;;;;;;;4954464;28;20094;-84
2024/01/14 05:48:37;;;;;;;0.20;0.10;;;;;;;;;;4971182;28;20049;-85
2024/01/14 05:51:12;;;;;;;0.20;0.10;;;;;;;;;;4962979;28;20051;-84
2024/01/14 05:53:41;;;;;;;0.20;0.10;;;;;;;;;;4970434;28;20170;-85
2024/01/14 05:56:07;;;;;;;0.20;0.00;;;;;;;;;;4981994;23;20439;-86
2024/01/14 05:58:34;;;;;;;0.20;0.10;;;;;;;;;;4945375;28;20054;-86
2024/01/14 06:01:00;;;;;;;0.20;0.00;;;;;;;;;;4945320;28;20043;-84
2024/01/14 06:03:26;;;;;;;0.20;0.10;;;;;;;;;;4950374;28;20050;-84
2024/01/14 06:05:53;;;;;;;0.20;0.10;;;;;;;;;;4935663;28;20043;-84
2024/01/14 06:08:19;;;;;;;0.20;0.08;;;;;;;;;;4930889;29;20139;-84
2024/01/14 06:10:45;;;;;;;0.20;0.10;;;;;;;;;;4950972;28;20467;-84
2024/01/14 06:13:11;;;;;;;0.20;0.10;;;;;;;;;;4940161;28;20089;-84
2024/01/14 06:15:37;;;;;;;0.20;0.00;;;;;;;;;;4931069;29;20077;-84
2024/01/14 06:18:03;;;;;;;0.20;0.10;;;;;;;;;;4945522;28;20079;-83
2024/01/14 06:20:29;;;;;;;0.20;0.10;;;;;;;;;;4936544;29;20075;-85
2024/01/14 06:22:55;;;;;;;0.20;0.10;;;;;;;;;;4935053;28;20039;-85
2024/01/14 06:25:21;;;;;;;0.20;0.10;;;;;;;;;;4925739;29;20035;-85
2024/01/14 06:27:47;;;;;;;0.20;0.10;;;;;;;;;;4952526;28;20050;-84
2024/01/14 06:30:13;;;;;;;0.20;0.10;;;;;;;;;;4935544;29;20299;-85
2024/01/14 06:32:40;;;;;;;0.20;0.00;;;;;;;;;;4933758;29;20043;-85
2024/01/14 06:35:06;;;;;;;0.20;0.10;;;;;;;;;;4931644;28;20049;-84
2024/01/14 06:37:32;;;;;;;0.20;0.10;;;;;;;;;;4931317;29;20043;-85
2024/01/14 06:39:58;;;;;;;0.20;0.03;;;;;;;;;;4931546;28;20050;-84
2024/01/14 06:42:24;;;;;;;0.20;0.10;;;;;;;;;;4939238;28;20043;-85
2024/01/14 06:44:50;;;;;;;0.20;0.10;;;;;;;;;;4943714;28;20118;-85
2024/01/14 06:47:16;;;;;;;0.20;0.10;;;;;;;;;;4941240;28;20075;-82
2024/01/14 06:49:42;;;;;;;0.20;0.10;;;;;;;;;;4920330;29;20063;-84
2024/01/14 06:52:08;;;;;;;0.20;0.10;;;;;;;;;;4930480;28;20049;-84
2024/01/14 06:54:38;;;;;;;0.20;0.10;;;;;;;;;;4941273;28;20067;-84
2024/01/14 06:57:04;;;;;;;0.20;0.10;;;;;;;;;;4939256;28;20674;-84
2024/01/14 06:59:30;;;;;;;0.20;0.10;;;;;;;;;;4942282;28;20043;-85
2024/01/14 07:01:56;;;;;;;0.20;0.10;;;;;;;;;;4949101;28;20082;-82
2024/01/14 07:04:22;;;;;;;0.20;0.10;;;;;;;;;;4929651;29;20090;-83
2024/01/14 07:06:48;;;;;;;0.20;0.10;;;;;;;;;;4946040;28;20055;-82
2024/01/14 07:09:14;;;;;;;0.20;0.10;;;;;;;;;;4928545;29;20039;-84
2024/01/14 07:11:40;;;;;;;0.20;0.10;;;;;;;;;;4926476;29;20043;-83
2024/01/14 07:14:07;;;;;;;0.20;0.10;;;;;;;;;;4932566;28;20142;-82
2024/01/14 07:16:33;;;;;;;0.20;0.10;;;;;;;;;;4927723;29;20061;-84
2024/01/14 07:18:59;;;;;;;0.20;0.00;;;;;;;;;;4943638;28;20031;-85
2024/01/14 07:21:25;;;;;;;0.20;0.10;;;;;;;;;;4942207;28;20035;-82
2024/01/14 07:23:51;;;;;;;0.20;0.00;;;;;;;;;;4929834;28;20050;-81
2024/01/14 07:26:18;;;;;;;0.20;0.10;;;;;;;;;;4943607;28;20337;-82
2024/01/14 07:28:44;;;;;;;0.20;0.10;;;;;;;;;;4941187;28;20039;-83
2024/01/14 07:31:12;;;;;;;0.20;0.10;;;;;;;;;;4928538;28;20046;-82
2024/01/14 07:33:39;;;;;;;0.20;0.10;;;;;;;;;;4949932;28;20053;-83
2024/01/14 07:36:05;;;;;;;0.20;0.10;;;;;;;;;;4950713;28;20044;-84
2024/01/14 07:38:31;;;;;;;0.20;0.00;;;;;;;;;;4931160;29;20043;-85
2024/01/14 07:40:57;;;;;;;0.20;0.10;;;;;;;;;;4946617;28;20078;-84
2024/01/14 07:43:23;;;;;;;0.20;0.10;;;;;;;;;;4929554;29;20047;-85
2024/01/14 07:45:50;;;;;;;0.20;0.10;;;;;;;;;;4925621;29;20475;-85
2024/01/14 07:48:16;;;;;;;0.20;0.10;;;;;;;;;;4925882;28;20097;-84
2024/01/14 07:50:42;;;;;;;0.20;0.10;;;;;;;;;;4936549;28;20066;-84
2024/01/14 07:53:09;;;;;;;0.20;0.10;;;;;;;;;;4927390;28;20440;-84
2024/01/14 07:55:35;;;;;;;0.20;0.10;;;;;;;;;;4940144;28;20046;-84
2024/01/14 07:58:01;;;;;;;0.20;0.10;;;;;;;;;;4929058;28;20040;-84
2024/01/14 08:00:27;;;;;;;0.20;0.10;;;;;;;;;;4929640;29;20038;-83
2024/01/14 08:02:53;;;;;;;0.20;0.00;;;;;;;;;;4927019;28;20035;-82
2024/01/14 08:05:19;;;;;;;0.20;0.00;;;;;;;;;;4923062;29;20265;-81
2024/01/14 08:07:45;;;;;;;0.20;0.10;;;;;;;;;;4926398;29;20150;-84
2024/01/14 08:10:12;;;;;;;0.20;0.10;;;;;;;;;;4938146;28;20050;-84
2024/01/14 08:12:38;;;;;;;0.20;0.10;;;;;;;;;;4939756;28;20043;-84
2024/01/14 08:15:04;;;;;;;0.20;0.00;;;;;;;;;;4925971;28;20043;-85
2024/01/14 08:17:30;;;;;;;0.20;0.00;;;;;;;;;;4926164;29;20054;-82
2024/01/14 08:19:56;;;;;;;0.20;0.10;;;;;;;;;;4936913;28;20043;-85
2024/01/14 08:22:22;;;;;;;0.20;0.00;;;;;;;;;;4952281;28;20046;-83
2024/01/14 08:24:48;;;;;;;0.20;0.10;;;;;;;;;;4938681;28;20130;-84
2024/01/14 08:27:15;;;;;;;0.20;0.10;;;;;;;;;;4928607;28;21381;-81
2024/01/14 08:29:41;;;;;;;0.20;0.00;;;;;;;;;;4923806;29;20050;-82
2024/01/14 08:32:07;;;;;;;0.20;0.10;;;;;;;;;;4940721;28;20420;-84
2024/01/14 08:34:33;;;;;;;0.20;0.00;;;;;;;;;;4938791;28;20497;-82
2024/01/14 08:36:59;;;;;;;0.20;0.00;;;;;;;;;;4935449;28;20070;-84
2024/01/14 08:39:25;;;;;;;0.20;0.10;;;;;;;;;;4939231;28;20047;-83
2024/01/14 08:41:51;;;;;;;0.20;0.10;;;;;;;;;;4926621;29;20431;-84
2024/01/14 08:44:17;;;;;;;0.20;0.10;;;;;;;;;;4923211;28;20647;-84
2024/01/14 08:46:48;;;;;;;0.20;0.00;;;;;;;;;;4936741;28;20099;-84
2024/01/14 08:49:14;;;;;;;0.20;0.20;;;;;;;;;;4936908;28;20044;-82
2024/01/14 08:51:41;;;;;;;0.20;0.10;;;;;;;;;;4938994;28;20039;-83
2024/01/14 08:54:09;;;;;;;0.20;0.10;;;;;;;;;;4938226;28;20043;-86
2024/01/14 08:56:35;;;;;;;0.20;0.10;;;;;;;;;;4936240;28;20075;-85
2024/01/14 08:59:01;;;;;;;0.20;0.10;;;;;;;;;;4926251;28;20547;-83
2024/01/14 09:01:27;;;;;;;0.20;0.10;;;;;;;;;;4939560;28;20046;-84
2024/01/14 09:03:54;;;;;;;0.20;0.03;;;;;;;;;;4923602;29;20042;-84
2024/01/14 09:06:20;;;;;;;0.20;0.10;;;;;;;;;;4941569;28;20046;-83
2024/01/14 09:08:46;;;;;;;0.20;0.10;;;;;;;;;;4926454;29;20042;-84
2024/01/14 09:11:13;;;;;;;0.20;0.10;;;;;;;;;;4938751;28;20039;-85
2024/01/14 09:13:39;;;;;;;0.20;0.10;;;;;;;;;;4921685;29;20360;-82
2024/01/14 09:16:06;;;;;;;0.20;0.10;;;;;;;;;;4921977;28;20061;-82
2024/01/14 09:18:32;;;;;;;0.20;0.10;;;;;;;;;;4937772;28;20471;-85
2024/01/14 09:20:58;;;;;;;0.20;0.00;;;;;;;;;;4933414;28;20563;-85
2024/01/14 09:23:24;;;;;;;0.20;0.10;;;;;;;;;;4922623;28;20047;-85
2024/01/14 09:25:50;;;;;;;0.20;0.10;;;;;;;;;;4921133;28;20036;-83
2024/01/14 09:28:16;;;;;;;0.20;0.10;;;;;;;;;;4940318;28;20044;-84
2024/01/14 09:30:42;;;;;;;0.20;0.10;;;;;;;;;;4924508;29;20036;-84
2024/01/14 09:33:08;;;;;;;0.20;0.10;;;;;;;;;;4940776;28;20062;-84
2024/01/14 09:35:34;;;;;;;0.20;0.10;;;;;;;;;;4937587;28;20504;-83
2024/01/14 09:38:00;;;;;;;0.20;0.00;;;;;;;;;;4942937;28;20041;-83
2024/01/14 09:40:26;;;;;;;0.25;0.20;;;;;;;;;;4941874;28;20047;-81
2024/01/14 09:42:53;;;;;;;0.20;0.10;;;;;;;;;;4944862;28;20075;-82
2024/01/14 09:45:21;;;;;;;0.20;0.10;;;;;;;;;;4931103;28;20035;-84
2024/01/14 09:47:47;;;;;;;0.20;0.10;;;;;;;;;;4933002;29;20194;-86
2024/01/14 09:50:13;;;;;;;0.20;0.10;;;;;;;;;;4932593;28;20039;-85
2024/01/14 09:52:41;;;;;;;0.20;0.10;;;;;;;;;;4941592;28;20046;-84
2024/01/14 09:55:07;;;;;;;0.20;0.10;;;;;;;;;;4936930;28;20506;-83
2024/01/14 09:57:35;;;;;;;0.20;0.10;;;;;;;;;;4948211;28;20058;-83
2024/01/14 10:00:05;;;;;;;0.20;0.10;;;;;;;;;;4946115;28;20043;-84
2024/01/14 10:02:33;;;;;;;0.20;0.20;;;;;;;;;;4948987;28;20035;-84
2024/01/14 10:04:59;;;;;;;0.20;0.08;;;;;;;;;;4943068;28;20043;-85
2024/01/14 10:07:26;;;;;;;0.20;0.10;;;;;;;;;;4945236;28;20043;-86
2024/01/14 10:09:55;;;;;;;0.20;0.10;;;;;;;;;;4928619;29;20046;-86
2024/01/14 10:12:21;;;;;;;0.20;0.10;;;;;;;;;;4947812;28;20063;-82
2024/01/14 10:14:57;;;;;;;0.20;0.10;;;;;;;;;;4933229;29;20043;-84
2024/01/14 10:17:23;;;;;;;0.20;0.10;;;;;;;;;;4944659;28;20126;-85
2024/01/14 10:19:53;;;;;;;0.20;0.10;;;;;;;;;;4948649;28;20043;-85
2024/01/14 10:22:20;;;;;;;0.20;0.03;;;;;;;;;;4942406;28;20052;-85
2024/01/14 10:24:53;;;;;;;0.20;0.10;;;;;;;;;;4932527;29;20053;-84
2024/01/14 10:27:19;;;;;;;;;;;;;;;;;;4935151;28;20130;-85
2024/01/14 10:29:45;;;;;;;0.20;0.10;;;;;;;;;;4930875;29;19925;-86
2024/01/14 10:32:11;;;;;;;0.20;0.05;;;;;;;;;;4941709;28;20287;-83
2024/01/14 10:34:38;;;;;;;0.20;0.00;;;;;;;;;;4931079;29;20048;-84
2024/01/14 10:37:04;;;;;;;0.20;0.00;;;;;;;;;;4928404;29;20090;-83
2024/01/14 10:39:30;;;;;;;0.20;0.10;;;;;;;;;;4931571;28;20051;-83
2024/01/14 10:41:56;;;;;;;0.20;0.10;;;;;;;;;;4929823;29;20047;-84
2024/01/14 10:44:22;;;;;;;0.20;0.10;;;;;;;;;;4946958;28;20050;-83
2024/01/14 10:46:50;;;;;;;0.20;0.00;;;;;;;;;;4941630;28;20428;-84
2024/01/14 10:49:18;;;;;;;0.20;0.00;;;;;;;;;;4931786;28;20507;-83
2024/01/14 10:51:48;;;;;;;0.20;0.10;;;;;;;;;;4935558;29;20039;-84
2024/01/14 10:54:20;;;;;;;0.20;0.10;;;;;;;;;;4938647;28;20054;-85
2024/01/14 10:56:50;;;;;;;0.20;0.10;;;;;;;;;;4936092;29;20051;-84
2024/01/14 10:59:16;;;;;;;0.20;0.10;;;;;;;;;;4931600;28;20062;-84
2024/01/14 11:01:50;;;;;;;0.20;0.10;;;;;;;;;;4931521;29;20043;-82
2024/01/14 11:04:18;;;;;;;0.20;0.10;;;;;;;;;;4924763;28;20059;-83
2024/01/14 11:06:57;;;;;;;0.20;0.10;;;;;;;;;;4943667;28;20054;-85
2024/01/14 11:09:23;;;;;;;0.20;0.10;;;;;;;;;;4941320;28;20142;-83
2024/01/14 11:11:51;;;;;;;0.20;0.05;;;;;;;;;;4927990;29;20648;-85
2024/01/14 11:14:23;;;;;;;0.20;0.10;;;;;;;;;;4941895;28;20047;-84
2024/01/14 11:16:55;;;;;;;0.20;0.10;;;;;;;;;;4928999;29;20105;-84
2024/01/14 11:19:23;;;;;;;0.20;0.10;;;;;;;;;;4945405;28;20590;-83
2024/01/14 11:22:07;;;;;;;0.20;0.00;;;;;;;;;;4932669;29;20130;-84
2024/01/14 11:24:34;;;;;;;0.20;0.10;;;;;;;;;;4947897;28;20039;-84
2024/01/14 11:27:00;;;;;;;0.20;0.10;;;;;;;;;;4940290;28;20499;-85
2024/01/14 11:29:32;;;;;;;0.88;0.85;;;;;;;;;;4943012;28;20050;-84
2024/01/14 11:32:19;;;;;;;0.20;0.10;;;;;;;;;;4928560;29;20035;-82
2024/01/14 11:34:45;;;;;;;0.20;0.00;;;;;;;;;;4931225;29;20119;-83
2024/01/14 11:37:11;;;;;;;0.20;0.10;;;;;;;;;;4943148;28;20478;-83
2024/01/14 11:39:37;;;;;;;0.20;0.10;;;;;;;;;;4947820;28;20043;-84
2024/01/14 11:42:06;;;;;;;0.20;0.10;;;;;;;;;;4932089;29;20511;-83
2024/01/14 11:44:32;;;;;;;10.25;0.35;;;;;;;;;;4947520;28;20433;-83
2024/01/14 11:46:58;;;;;;;0.20;0.10;;;;;;;;;;4931732;29;20512;-84
2024/01/14 11:49:27;;;;;;;0.20;0.10;;;;;;;;;;4944209;28;20051;-84
2024/01/14 11:51:53;;;;;;;0.20;0.10;;;;;;;;;;4939064;28;20035;-84
2024/01/14 11:54:19;;;;;;;0.20;0.10;;;;;;;;;;4930338;28;20051;-82
2024/01/14 11:56:45;;;;;;;0.20;0.10;;;;;;;;;;4962300;23;20040;-86
2024/01/14 11:59:18;;;;;;;0.20;0.10;;;;;;;;;;4941517;28;20043;-85
2024/01/14 12:01:47;;;;;;;0.20;0.10;;;;;;;;;;4932282;29;20070;-84
2024/01/14 12:04:13;;;;;;;0.20;0.10;;;;;;;;;;4946605;28;20095;-87
2024/01/14 12:06:44;;;;;;;0.20;0.10;;;;;;;;;;4953481;28;20039;-84
2024/01/14 12:09:10;;;;;;;0.20;0.10;;;;;;;;;;4934562;28;20079;-85
2024/01/14 12:11:40;;;;;;;0.20;0.10;;;;;;;;;;4951126;28;20050;-87
2024/01/14 12:14:15;;;;;;;0.20;0.00;;;;;;;;;;4948328;28;20059;-89
2024/01/14 12:16:42;;;;;;;0.20;0.00;;;;;;;;;;4931539;28;20078;-84
2024/01/14 12:19:20;;;;;;;0.20;0.10;;;;;;;;;;4936586;29;20047;-88
2024/01/14 12:21:49;;;;;;;0.20;0.10;;;;;;;;;;4949489;28;20058;-86
2024/01/14 12:24:15;;;;;;;0.20;0.00;;;;;;;;;;4954577;28;20047;-85
2024/01/14 12:26:48;;;;;;;0.20;0.10;;;;;;;;;;4935397;28;20046;-87
2024/01/14 12:29:14;;;;;;;0.20;0.10;;;;;;;;;;4952228;28;20612;-87
2024/01/14 12:31:48;;;;;;;0.20;0.00;;;;;;;;;;4936138;28;20155;-89
2024/01/14 12:34:23;;;;;;;0.20;0.10;;;;;;;;;;4935926;28;20042;-88
2024/01/14 12:36:49;;;;;;;0.20;0.10;;;;;;;;;;4948805;28;20815;-86
2024/01/14 12:39:17;;;;;;;0.20;0.10;;;;;;;;;;4937747;29;20049;-85
2024/01/14 12:41:43;;;;;;;0.20;0.10;;;;;;;;;;4953345;28;20551;-85
2024/01/14 12:44:09;;;;;;;0.20;0.10;;;;;;;;;;4935118;28;20468;-85
2024/01/14 12:46:36;;;;;;;0.20;0.10;;;;;;;;;;4931879;28;20103;-86
2024/01/14 12:49:05;;;;;;;0.20;0.10;;;;;;;;;;4949598;28;20051;-84
2024/01/14 12:51:31;;;;;;;0.20;0.10;;;;;;;;;;4962376;28;20847;-84
2024/01/14 12:54:00;;;;;;;0.20;0.00;;;;;;;;;;4966316;28;20046;-88
2024/01/14 12:56:29;;;;;;;0.20;0.10;;;;;;;;;;4935108;28;20047;-84
2024/01/14 12:58:58;;;;;;;0.20;0.10;;;;;;;;;;4934885;29;20036;-88
2024/01/14 13:01:24;;;;;;;0.20;0.10;;;;;;;;;;4943546;28;20047;-83
2024/01/14 13:03:52;;;;;;;0.20;0.10;;;;;;;;;;4952814;28;20047;-85
2024/01/14 13:06:18;;;;;;;0.20;0.10;;;;;;;;;;4944688;28;20073;-88
2024/01/14 13:08:49;;;;;;;0.20;0.10;;;;;;;;;;4945095;28;20035;-87
2024/01/14 13:11:15;;;;;;;0.20;0.10;;;;;;;;;;4937647;28;20098;-82
2024/01/14 13:13:41;;;;;;;0.20;0.10;;;;;;;;;;4948951;28;20102;-86
2024/01/14 13:16:09;;;;;;;0.20;0.10;;;;;;;;;;4928450;29;20546;-87
2024/01/14 13:18:35;;;;;;;0.20;0.10;;;;;;;;;;4950650;28;20542;-89
2024/01/14 13:21:01;;;;;;;0.20;0.00;;;;;;;;;;4940705;28;20854;-84
2024/01/14 13:23:41;;;;;;;0.20;0.10;;;;;;;;;;4952454;28;20046;-87
2024/01/14 13:26:13;;;;;;;0.20;0.10;;;;;;;;;;4936739;28;20043;-88
2024/01/14 13:28:40;;;;;;;0.20;0.10;;;;;;;;;;4950224;28;20039;-85
2024/01/14 13:31:06;;;;;;;0.20;0.00;;;;;;;;;;4939888;28;20058;-88
2024/01/14 13:33:41;;;;;;;0.20;0.10;;;;;;;;;;4946427;28;20050;-87
2024/01/14 13:36:10;;;;;;;0.20;0.10;;;;;;;;;;4977148;23;20333;-86
2024/01/14 13:38:37;;;;;;;0.20;0.10;;;;;;;;;;4950217;28;20043;-87
2024/01/14 13:41:20;;;;;;;0.20;0.10;;;;;;;;;;4954520;28;20360;-87
2024/01/14 13:43:49;;;;;;;0.20;0.00;;;;;;;;;;4956349;28;20099;-86
2024/01/14 13:46:15;;;;;;;0.20;0.10;;;;;;;;;;4949094;28;20130;-86
2024/01/14 13:48:44;;;;;;;0.20;0.20;;;;;;;;;;4966271;28;20081;-87
2024/01/14 13:51:11;;;;;;;0.20;0.10;;;;;;;;;;4942532;23;20072;-84
2024/01/14 13:53:37;;;;;;;0.77;0.50;;;;;;;;;;4893732;29;20052;-83
2024/01/14 13:56:03;;;;;;;0.20;0.10;;;;;;;;;;4897257;29;20036;-83
2024/01/14 13:58:29;;;;;;;0.20;0.10;;;;;;;;;;4895036;29;20068;-82
2024/01/14 14:00:55;;;;;;;0.20;0.10;;;;;;;;;;4895167;29;20343;-85
2024/01/14 14:03:22;;;;;;;0.20;0.10;;;;;;;;;;4894929;29;20051;-82
2024/01/14 14:05:49;;;;;;;0.20;0.10;;;;;;;;;;4894171;29;20123;-85
2024/01/14 14:08:15;;;;;;;0.20;0.10;;;;;;;;;;4894007;29;20421;-85
2024/01/14 14:10:41;;;;;;;0.25;0.15;;;;;;;;;;4896000;29;20158;-84
2024/01/14 14:13:07;;;;;;;0.20;0.10;;;;;;;;;;4897915;29;20063;-82
2024/01/14 14:15:33;;;;;;;0.20;0.10;;;;;;;;;;4889960;29;20060;-83
2024/01/14 14:18:02;;;;;;;0.20;0.10;;;;;;;;;;4894658;29;20052;-84
2024/01/14 14:20:28;;;;;;;0.20;0.10;;;;;;;;;;4907380;29;20139;-84
2024/01/14 14:22:54;;;;;;;0.20;0.00;;;;;;;;;;4901627;29;20123;-85
2024/01/14 14:25:20;;;;;;;0.20;0.10;;;;;;;;;;4898823;29;20048;-84
2024/01/14 14:27:47;;;;;;;0.20;0.00;;;;;;;;;;4898759;29;20436;-84
2024/01/14 14:30:14;;;;;;;0.20;0.10;;;;;;;;;;4909128;29;20579;-83
2024/01/14 14:32:40;;;;;;;0.20;0.05;;;;;;;;;;4901887;29;20036;-84
2024/01/14 14:35:10;;;;;;;0.20;0.10;;;;;;;;;;4914607;29;20052;-83
2024/01/14 14:37:37;;;;;;;0.20;0.10;;;;;;;;;;4896971;29;20060;-83
2024/01/14 14:40:03;;;;;;;0.20;0.10;;;;;;;;;;4897948;29;20119;-83
2024/01/14 14:42:29;;;;;;;0.20;0.05;;;;;;;;;;4898408;29;20081;-85
2024/01/14 14:44:55;;;;;;;0.20;0.10;;;;;;;;;;4902193;29;20044;-86
2024/01/14 14:47:21;;;;;;;0.20;0.10;;;;;;;;;;4897042;29;20036;-85
2024/01/14 14:49:47;;;;;;;0.20;0.10;;;;;;;;;;4893344;29;20036;-85
2024/01/14 14:52:15;;;;;;;0.20;0.10;;;;;;;;;;4913102;29;20089;-85
2024/01/14 14:54:41;;;;;;;0.20;0.10;;;;;;;;;;4894350;29;20048;-84